Dirección General De Aeronáutica Civil

Dirección Meteorológica de Chile - Servicios Climáticos

Informe General de Control de Calidad de la Estación

Listado de niveles de control de calidad para algunos parámetros
Estación Cabo Raper faro (460002)
Fecha de Revisión de los datos :

Elementos

Registros Niveles de Control Total
Nivel 0 Nivel 1 Nivel 2 Nivel 3 Errores Porcentaje
01 Temperatura del Aire Seco 10.721 1 0.01 % 0 . 0 . 0 . 1 0.01 %
02 Temperatura de Rocío 10.722 0 . 0 . 0 . 0 . 0 0.00 %
03 Humedad Relativa del Aire 10.720 0 . 0 . 0 . 0 . 0 0.00 %
04 Temperatura Máxima PM 1.346 0 . 0 . 46 3.42 % 0 . 46 3.42 %
05 Temperatura Mínima AM 1.372 0 . 0 . 68 4.96 % 0 . 68 4.96 %
06 Viento a 10 m. de Altura 10.722 2 0.02 % 0 . 0 . 0 . 2 0.02 %
07 Agua Caida, Acumulada 6 Horas 5.362 0 . 273 5.09 % 0 . 0 . 273 5.09 %
08 Presión Atm. a Nivel de Estación (QFE) 10.722 0 . 7 0.07 % 0 . 0 . 7 0.07 %
09 Presión Atm. a Nivel Medio del Mar (QFF) 10.722 0 . 0 . 0 . 0 . 0 0.00 %
10 Tiempo Pasado Sinóptico 10.722 0 . 0 . 0 . 0 . 0 0.00 %
11 Tiempo Presente Sinóptico 10.722 0 . 8 0.07 % 0 . 0 . 8 0.07 %

Totales

93.853 . 0.0032 % . 0.3069 % . 0.1215 % . 0.0000 % 405 0.4315 %

Detalle de Errores Recientes

Fecha del Dato Descripción Información Error Fecha Ingreso
2023-12-31 00:00:00 Temperatura 14.6 del 30-12-2023 18:00, Mayor que la Máxima 14.0 31-12-2023 00:00 14.6 -- 14.0 2023-12-31 02:05:00
2024-01-18 00:00:00 Temperatura 15.6 del 17-01-2024 15:00, Mayor que la Máxima 14.8 18-01-2024 00:00 15.6 -- 14.8 2024-01-18 03:11:00
2024-01-03 12:00:00 Temperatura 12.6 del 03-01-2024 03:00, Menor que la Mínima 13.0 03-01-2024 12:00 12.6 -- 13.0 2024-01-03 12:28:00
2024-01-31 12:00:00 rrr = s/p y WW = 2 w1=6 w2=2 0.0 2024-01-31 14:51:00
Total de Errores Recientes 4

Detalle de Errores Encontrados

Nivel Fecha del Dato Descripción Información Error Fecha Ingreso
0 2020-12-15 06:00:00 Ts (Temperatura Del Aire) debe ser numérico, entre -50.0 y 50.0 84.0 2020-12-15 06:18:00
0 2021-08-05 09:00:00 ff (Intensidad del Viento) debe ser numerico, entre 0 y 70 kt. 80 2021-08-05 09:23:00
0 2022-10-12 09:00:00 ff (Intensidad del Viento) debe ser numerico, entre 0 y 70 kt. 89 2022-10-12 09:02:00
Errores del Nivel 3
Nivel Fecha del Dato Descripción Información Error Fecha Ingreso
1 2020-06-20 06:00:00 ts > 3.0 y ( (ww >= 48 y ww <= 49) o (ww >= 56 y ww <= 57) o (ww >=66 y ww <= 67)) 67 2020-06-20 06:34:00
1 2021-06-09 18:00:00 ts > 5.0 y ((ww >= 70 y ww <= 79) || (ww >= 85 y ww <= 88))) 87 2021-06-09 18:09:00
1 2021-06-09 21:00:00 ts > 5.0 y ((ww >= 70 y ww <= 79) || (ww >= 85 y ww <= 88))) 87 2021-06-09 21:00:00
1 2021-08-06 03:00:00 ts > 5.0 y ((ww >= 70 y ww <= 79) || (ww >= 85 y ww <= 88))) 87 2021-08-06 03:01:00
1 2021-09-17 03:00:00 ts > 5.0 y ((ww >= 70 y ww <= 79) || (ww >= 85 y ww <= 88))) 88 2021-09-17 03:19:00
1 2022-07-16 21:00:00 ts > 3.0 y ( (ww >= 48 y ww <= 49) o (ww >= 56 y ww <= 57) o (ww >=66 y ww <= 67)) 49 2022-07-16 20:51:00
1 2023-05-21 06:00:00 ts > 3.0 y ( (ww >= 48 y ww <= 49) o (ww >= 56 y ww <= 57) o (ww >=66 y ww <= 67)) 67 2023-05-21 07:24:00
1 2023-11-13 18:00:00 ts > 5.0 y ((ww >= 70 y ww <= 79) || (ww >= 85 y ww <= 88))) 70 2023-11-13 18:30:00
1 2020-06-25 12:00:00 rrr = 1.4 y WW = 2 w1=0 w2=0 1.4 2020-06-25 12:11:00
1 2020-06-29 18:00:00 rrr = s/p y WW = 3 w1=5 w2=1 0.0 2020-06-29 18:28:00
1 2020-07-01 18:00:00 rrr = s/p y WW = 2 w1=8 w2=8 0.0 2020-07-01 18:44:00
1 2020-07-02 18:00:00 rrr = s/p y WW = 10 w1=5 w2=2 0.0 2020-07-02 18:28:00
1 2020-07-03 00:00:00 rrr = s/p y WW = 2 w1=5 w2=2 0.0 2020-07-03 00:54:00
1 2020-07-04 00:00:00 rrr = 0.1 y WW = 2 w1=0 w2=0 0.1 2020-07-04 03:00:00
1 2020-07-04 06:00:00 rrr = 0.1 y WW = 2 w1=0 w2=0 0.1 2020-07-04 05:53:00
1 2020-07-04 12:00:00 rrr = 1.7 y WW = 2 w1=0 w2=0 1.7 2020-07-04 12:10:00
1 2020-07-10 18:00:00 rrr = s/p y WW = 80 w1=5 w2=2 0.0 2020-07-10 18:07:00
1 2020-07-11 18:00:00 rrr = s/p y WW = 2 w1=8 w2=2 0.0 2020-07-11 18:15:00
1 2020-07-14 18:00:00 rrr = trazas y WW = 3 w1=1 w2=0 0.0 2020-07-14 18:28:00
1 2020-07-17 18:00:00 rrr = 0.1 y WW = 1 w1=2 w2=1 0.1 2020-07-17 18:19:00
1 2020-07-26 06:00:00 rrr = s/p y WW = 1 w1=5 w2=1 0.0 2020-07-26 05:52:00
1 2020-08-04 00:00:00 rrr = s/p y WW = 51 w1=5 w2=5 0.0 2020-08-04 00:34:00
1 2020-08-04 12:00:00 rrr = 0.2 y WW = 2 w1=2 w2=2 0.2 2020-08-04 12:36:00
1 2020-08-05 18:00:00 rrr = s/p y WW = 2 w1=6 w2=2 0.0 2020-08-05 17:56:00
1 2020-08-06 12:00:00 rrr = s/p y WW = 51 w1=2 w2=2 0.0 2020-08-06 12:38:00
1 2020-08-08 06:00:00 rrr = s/p y WW = 51 w1=5 w2=5 0.0 2020-08-08 06:11:00
1 2020-08-08 18:00:00 rrr = s/p y WW = 2 w1=5 w2=5 0.0 2020-08-08 18:15:00
1 2020-08-10 12:00:00 rrr = s/p y WW = 61 w1=6 w2=2 0.0 2020-08-10 12:28:00
1 2020-08-10 18:00:00 rrr = s/p y WW = 2 w1=6 w2=2 0.0 2020-08-10 18:12:00
1 2020-08-14 06:00:00 rrr = s/p y WW = 2 w1=6 w2=2 0.0 2020-08-14 06:33:00
1 2020-08-16 06:00:00 rrr = s/p y WW = 20 w1=5 w2=5 0.0 2020-08-16 06:26:00
1 2020-08-16 12:00:00 rrr = s/p y WW = 3 w1=5 w2=2 0.0 2020-08-16 12:49:00
1 2020-08-17 18:00:00 rrr = s/p y WW = 53 w1=5 w2=5 0.0 2020-08-17 18:01:00
1 2020-08-23 12:00:00 rrr = s/p y WW = 2 w1=5 w2=2 0.0 2020-08-23 12:39:00
1 2020-08-24 06:00:00 rrr = s/p y WW = 3 w1=5 w2=2 0.0 2020-08-24 06:24:00
1 2020-08-28 18:00:00 rrr = s/p y WW = 2 w1=8 w2=6 0.0 2020-08-28 18:19:00
1 2020-08-29 00:00:00 rrr = 0.1 y WW = 10 w1=2 w2=2 0.1 2020-08-29 00:09:00
1 2020-09-09 12:00:00 rrr = 2.6 y WW = 2 w1=2 w2=2 2.6 2020-09-09 12:08:00
1 2020-09-09 18:00:00 rrr = s/p y WW = 25 w1=2 w2=2 0.0 2020-09-09 18:18:00
1 2020-09-12 00:00:00 rrr = s/p y WW = 50 w1=5 w2=5 0.0 2020-09-12 00:11:00
1 2020-09-14 12:00:00 rrr = s/p y WW = 61 w1=5 w2=5 0.0 2020-09-14 12:11:00
1 2020-09-15 06:00:00 rrr = s/p y WW = 2 w1=6 w2=2 0.0 2020-09-15 06:19:00
1 2020-09-15 12:00:00 rrr = 0.6 y WW = 2 w1=2 w2=2 0.6 2020-09-15 11:59:00
1 2020-09-22 12:00:00 rrr = s/p y WW = 3 w1=5 w2=2 0.0 2020-09-22 11:46:00
1 2020-09-23 06:00:00 rrr = s/p y WW = 1 w1=5 w2=0 0.0 2020-09-23 06:12:00
1 2020-09-24 12:00:00 rrr = 0.1 y WW = 2 w1=2 w2=2 0.1 2020-09-24 12:27:00
1 2020-10-05 18:00:00 rrr = s/p y WW = 51 w1=6 w2=5 0.0 2020-10-05 17:56:00
1 2020-10-06 06:00:00 rrr = s/p y WW = 51 w1=5 w2=2 0.0 2020-10-06 05:52:00
1 2020-10-07 06:00:00 rrr = s/p y WW = 51 w1=5 w2=5 0.0 2020-10-07 06:11:00
1 2020-10-09 12:00:00 rrr = 1.0 y WW = 6 w1=2 w2=2 1.0 2020-10-09 11:55:00
1 2020-10-10 06:00:00 rrr = s/p y WW = 2 w1=5 w2=2 0.0 2020-10-10 06:01:00
1 2020-10-14 12:00:00 rrr = s/p y WW = 1 w1=5 w2=2 0.0 2020-10-14 12:31:00
1 2020-10-18 12:00:00 rrr = 0.5 y WW = 2 w1=2 w2=2 0.5 2020-10-18 12:32:00
1 2020-10-18 18:00:00 rrr = s/p y WW = 51 w1=2 w2=2 0.0 2020-10-18 18:27:00
1 2020-10-22 18:00:00 rrr = 0.1 y WW = 2 w1=2 w2=2 0.1 2020-10-22 19:08:00
1 2020-10-24 18:00:00 rrr = s/p y WW = 25 w1=2 w2=2 0.0 2020-10-24 18:16:00
1 2020-10-26 00:00:00 rrr = s/p y WW = 60 w1=5 w2=5 0.0 2020-10-26 00:28:00
1 2020-10-26 18:00:00 rrr = s/p y WW = 2 w1=6 w2=2 0.0 2020-10-26 18:01:00
1 2020-10-28 12:00:00 rrr = s/p y WW = 2 w1=6 w2=2 0.0 2020-10-28 11:49:00
1 2020-10-29 06:00:00 rrr = 0.2 y WW = 10 w1=2 w2=2 0.2 2020-10-29 10:36:00
1 2020-10-29 12:00:00 rrr = 1.0 y WW = 2 w1=2 w2=2 1.0 2020-10-29 12:28:00
1 2020-10-29 18:00:00 rrr = trazas y WW = 2 w1=2 w2=2 0.0 2020-10-29 18:22:00
1 2020-10-31 12:00:00 rrr = s/p y WW = 2 w1=5 w2=2 0.0 2020-10-31 13:12:00
1 2020-11-03 06:00:00 rrr = s/p y WW = 2 w1=5 w2=2 0.0 2020-11-03 06:22:00
1 2020-11-03 12:00:00 rrr = 0.1 y WW = 2 w1=2 w2=2 0.1 2020-11-03 12:31:00
1 2020-11-04 18:00:00 rrr = s/p y WW = 25 w1=2 w2=2 0.0 2020-11-04 18:16:00
1 2020-11-05 06:00:00 rrr = 0.2 y WW = 2 w1=2 w2=2 0.2 2020-11-05 11:32:00
1 2020-11-05 18:00:00 rrr = 3.0 y WW = 3 w1=2 w2=1 3.0 2020-11-05 18:01:00
1 2020-11-08 12:00:00 rrr = s/p y WW = 2 w1=5 w2=2 0.0 2020-11-08 12:24:00
1 2020-11-09 12:00:00 rrr = s/p y WW = 2 w1=5 w2=5 0.0 2020-11-09 12:26:00
1 2020-11-11 18:00:00 rrr = 1.9 y WW = 2 w1=2 w2=2 1.9 2020-11-11 18:21:00
1 2020-11-12 12:00:00 rrr = 3.3 y WW = 2 w1=2 w2=2 3.3 2020-11-12 16:56:00
1 2020-11-24 12:00:00 rrr = 1.1 y WW = 2 w1=2 w2=2 1.1 2020-11-24 12:33:00
1 2020-11-28 12:00:00 rrr = 1.9 y WW = 1 w1=2 w2=2 1.9 2020-11-28 12:24:00
1 2020-12-06 06:00:00 rrr = s/p y WW = 51 w1=5 w2=2 0.0 2020-12-06 06:05:00
1 2020-12-09 18:00:00 rrr = s/p y WW = 51 w1=2 w2=2 0.0 2020-12-09 20:24:00
1 2020-12-10 00:00:00 rrr = s/p y WW = 50 w1=5 w2=5 0.0 2020-12-10 00:22:00
1 2020-12-10 12:00:00 rrr = 0.1 y WW = 2 w1=2 w2=2 0.1 2020-12-10 12:22:00
1 2020-12-12 00:00:00 rrr = 1.0 y WW = 2 w1=2 w2=2 1.0 2020-12-12 01:01:00
1 2020-12-12 06:00:00 rrr = 1.5 y WW = 2 w1=2 w2=2 1.5 2020-12-12 06:39:00
1 2020-12-13 00:00:00 rrr = 1.5 y WW = 2 w1=2 w2=2 1.5 2020-12-13 01:41:00
1 2020-12-17 06:00:00 rrr = 2.5 y WW = 2 w1=2 w2=2 2.5 2020-12-17 08:49:00
1 2020-12-18 06:00:00 rrr = 0.5 y WW = 2 w1=0 w2=0 0.5 2020-12-18 06:25:00
1 2020-12-19 00:00:00 rrr = 0.1 y WW = 2 w1=0 w2=0 0.1 2020-12-19 00:32:00
1 2020-12-23 12:00:00 rrr = s/p y WW = 51 w1=5 w2=5 0.0 2020-12-23 12:19:00
1 2020-12-28 12:00:00 rrr = s/p y WW = 50 w1=6 w2=6 0.0 2020-12-28 12:36:00
1 2020-12-28 18:00:00 rrr = s/p y WW = 2 w1=5 w2=2 0.0 2020-12-28 21:57:00
1 2020-12-31 18:00:00 rrr = s/p y WW = 2 w1=5 w2=5 0.0 2020-12-31 18:22:00
1 2021-01-02 06:00:00 rrr = s/p y WW = 50 w1=5 w2=5 0.0 2021-01-02 06:15:00
1 2021-01-04 12:00:00 rrr = s/p y WW = 63 w1=1 w2=1 0.0 2021-01-04 11:59:00
1 2021-01-05 06:00:00 rrr = trazas y WW = 2 w1=1 w2=1 0.0 2021-01-05 06:19:00
1 2021-01-07 18:00:00 rrr = 0.1 y WW = 2 w1=2 w2=2 0.1 2021-01-07 18:10:00
1 2021-01-08 06:00:00 rrr = 0.3 y WW = 2 w1=2 w2=2 0.3 2021-01-08 06:13:00
1 2021-01-10 00:00:00 rrr = s/p y WW = 2 w1=5 w2=2 0.0 2021-01-10 00:05:00
1 2021-01-10 06:00:00 rrr = s/p y WW = 2 w1=5 w2=2 0.0 2021-01-10 06:22:00
1 2021-01-10 12:00:00 rrr = s/p y WW = 2 w1=6 w2=2 0.0 2021-01-10 11:58:00
1 2021-01-12 12:00:00 rrr = s/p y WW = 2 w1=6 w2=2 0.0 2021-01-12 12:10:00
1 2021-01-12 18:00:00 rrr = s/p y WW = 1 w1=5 w2=2 0.0 2021-01-12 22:00:00
1 2021-01-13 18:00:00 rrr = trazas y WW = 2 w1=2 w2=2 0.0 2021-01-13 17:58:00
1 2021-01-17 06:00:00 rrr = s/p y WW = 2 w1=5 w2=2 0.0 2021-01-17 06:07:00
1 2021-01-19 18:00:00 rrr = s/p y WW = 1 w1=5 w2=2 0.0 2021-01-19 17:58:00
1 2021-01-21 00:00:00 rrr = s/p y WW = 10 w1=5 w2=2 0.0 2021-01-21 00:24:00
1 2021-01-21 06:00:00 rrr = 1.0 y WW = 2 w1=2 w2=2 1.0 2021-01-21 06:18:00
1 2021-01-25 12:00:00 rrr = s/p y WW = 2 w1=6 w2=2 0.0 2021-01-25 12:25:00
1 2021-01-26 00:00:00 rrr = 0.5 y WW = 2 w1=2 w2=1 0.5 2021-01-26 00:34:00
1 2021-02-02 12:00:00 rrr = 0.4 y WW = 10 w1=2 w2=2 0.4 2021-02-02 12:08:00
1 2021-02-04 12:00:00 rrr = 0.2 y WW = 10 w1=2 w2=2 0.2 2021-02-04 12:27:00
1 2021-02-05 12:00:00 rrr = 0.5 y WW = 2 w1=2 w2=2 0.5 2021-02-05 12:22:00
1 2021-02-08 06:00:00 rrr = trazas y WW = 2 w1=2 w2=2 0.0 2021-02-08 06:10:00
1 2021-02-10 12:00:00 rrr = 10.0 y WW = 10 w1=2 w2=1 10.0 2021-02-10 12:16:00
1 2021-02-11 06:00:00 rrr = s/p y WW = 51 w1=5 w2=2 0.0 2021-02-11 06:59:00
1 2021-02-13 18:00:00 rrr = s/p y WW = 2 w1=5 w2=5 0.0 2021-02-13 18:07:00
1 2021-02-15 06:00:00 rrr = trazas y WW = 2 w1=0 w2=0 0.0 2021-02-15 06:56:00
1 2021-02-16 12:00:00 rrr = s/p y WW = 50 w1=6 w2=2 0.0 2021-02-16 12:33:00
1 2021-02-18 12:00:00 rrr = s/p y WW = 2 w1=6 w2=5 0.0 2021-02-18 12:06:00
1 2021-02-20 00:00:00 rrr = 1.8 y WW = 2 w1=2 w2=2 1.8 2021-02-20 10:36:00
1 2021-02-20 18:00:00 rrr = 0.3 y WW = 2 w1=2 w2=2 0.3 2021-02-20 18:18:00
1 2021-02-21 12:00:00 rrr = 3.5 y WW = 2 w1=2 w2=2 3.5 2021-02-21 12:16:00
1 2021-02-22 12:00:00 rrr = s/p y WW = 2 w1=5 w2=2 0.0 2021-02-22 12:08:00
1 2021-02-26 12:00:00 rrr = trazas y WW = 2 w1=2 w2=2 0.0 2021-02-26 12:25:00
1 2021-03-01 00:00:00 rrr = s/p y WW = 21 w1=6 w2=6 0.0 2021-03-01 00:47:00
1 2021-03-06 12:00:00 rrr = s/p y WW = 21 w1=6 w2=6 0.0 2021-03-06 13:08:00
1 2021-03-21 18:00:00 rrr = trazas y WW = 15 w1=2 w2=2 0.0 2021-03-21 18:22:00
1 2021-03-23 00:00:00 rrr = 1.5 y WW = 1 w1=2 w2=1 1.5 2021-03-22 23:59:00
1 2021-03-23 12:00:00 rrr = s/p y WW = 50 w1=6 w2=6 0.0 2021-03-23 12:00:00
1 2021-03-26 18:00:00 rrr = s/p y WW = 2 w1=8 w2=6 0.0 2021-03-26 18:08:00
1 2021-03-28 12:00:00 rrr = 3.0 y WW = 2 w1=2 w2=2 3.0 2021-03-28 12:12:00
1 2021-03-30 00:00:00 rrr = s/p y WW = 50 w1=6 w2=5 0.0 2021-03-30 00:02:00
1 2021-03-31 00:00:00 rrr = s/p y WW = 2 w1=6 w2=2 0.0 2021-03-31 01:07:00
1 2021-04-04 00:00:00 rrr = s/p y WW = 61 w1=6 w2=6 0.0 2021-04-04 00:16:00
1 2021-04-04 12:00:00 rrr = s/p y WW = 63 w1=6 w2=6 0.0 2021-04-04 12:16:00
1 2021-04-08 06:00:00 rrr = 1.3 y WW = 3 w1=2 w2=1 1.3 2021-04-08 05:49:00
1 2021-04-12 18:00:00 rrr = s/p y WW = 2 w1=6 w2=2 0.0 2021-04-12 18:19:00
1 2021-04-13 12:00:00 rrr = s/p y WW = 53 w1=2 w2=2 0.0 2021-04-13 12:08:00
1 2021-04-15 12:00:00 rrr = 2.1 y WW = 2 w1=2 w2=2 2.1 2021-04-15 13:28:00
1 2021-04-18 00:00:00 rrr = s/p y WW = 2 w1=5 w2=2 0.0 2021-04-18 00:02:00
1 2021-04-20 06:00:00 rrr = s/p y WW = 2 w1=6 w2=0 0.0 2021-04-20 07:32:00
1 2021-04-22 18:00:00 rrr = 2.0 y WW = 2 w1=2 w2=2 2.0 2021-04-22 18:28:00
1 2021-04-26 00:00:00 rrr = s/p y WW = 2 w1=6 w2=2 0.0 2021-04-25 23:57:00
1 2021-04-26 12:00:00 rrr = s/p y WW = 16 w1=6 w2=2 0.0 2021-04-26 11:56:00
1 2021-05-03 06:00:00 rrr = s/p y WW = 1 w1=8 w2=2 0.0 2021-05-03 05:52:00
1 2021-05-12 12:00:00 rrr = 0.3 y WW = 2 w1=2 w2=1 0.3 2021-05-12 11:56:00
1 2021-05-18 00:00:00 rrr = 0.3 y WW = 2 w1=2 w2=2 0.3 2021-05-18 03:07:00
1 2021-06-03 06:00:00 rrr = s/p y WW = 2 w1=6 w2=2 0.0 2021-06-03 05:58:00
1 2021-06-11 12:00:00 rrr = s/p y WW = 80 w1=6 w2=2 0.0 2021-06-11 12:28:00
1 2021-06-23 00:00:00 rrr = s/p y WW = 2 w1=8 w2=2 0.0 2021-06-23 00:47:00
1 2021-06-27 18:00:00 rrr = s/p y WW = 50 w1=5 w2=5 0.0 2021-06-27 20:30:00
1 2021-06-28 12:00:00 rrr = trazas y WW = 2 w1=2 w2=2 0.0 2021-06-28 11:54:00
1 2021-06-30 00:00:00 rrr = 2.0 y WW = 2 w1=2 w2=2 2.0 2021-06-30 00:21:00
1 2021-06-30 12:00:00 rrr = 1.3 y WW = 2 w1=2 w2=2 1.3 2021-06-30 12:22:00
1 2021-07-19 18:00:00 rrr = 4.5 y WW = 2 w1=4 w2=2 4.5 2021-07-19 21:23:00
1 2021-07-20 12:00:00 rrr = s/p y WW = 2 w1=8 w2=2 0.0 2021-07-20 12:12:00
1 2021-07-28 18:00:00 rrr = trazas y WW = 10 w1=2 w2=2 0.0 2021-07-28 18:06:00
1 2021-08-03 18:00:00 rrr = trazas y WW = 1 w1=2 w2=2 0.0 2021-08-03 18:32:00
1 2021-08-14 12:00:00 rrr = s/p y WW = 50 w1=5 w2=5 0.0 2021-08-14 12:16:00
1 2021-08-16 06:00:00 rrr = s/p y WW = 2 w1=5 w2=2 0.0 2021-08-16 05:48:00
1 2021-09-01 18:00:00 rrr = trazas y WW = 3 w1=2 w2=2 0.0 2021-09-01 18:06:00
1 2021-09-10 18:00:00 rrr = s/p y WW = 60 w1=6 w2=6 0.0 2021-09-10 18:18:00
1 2021-09-15 06:00:00 rrr = s/p y WW = 60 w1=6 w2=6 0.0 2021-09-15 06:00:00
1 2021-09-16 12:00:00 rrr = s/p y WW = 61 w1=6 w2=6 0.0 2021-09-16 12:20:00
1 2021-09-22 12:00:00 rrr = s/p y WW = 51 w1=8 w2=2 0.0 2021-09-22 12:03:00
1 2021-09-25 18:00:00 rrr = s/p y WW = 2 w1=6 w2=2 0.0 2021-09-25 18:00:00
1 2021-10-03 06:00:00 rrr = 1.0 y WW = 2 w1=2 w2=2 1.0 2021-10-03 06:10:00
1 2021-10-20 12:00:00 rrr = s/p y WW = 63 w1=5 w2=2 0.0 2021-10-20 12:39:00
1 2021-10-21 06:00:00 rrr = s/p y WW = 2 w1=8 w2=2 0.0 2021-10-21 06:00:00
1 2021-10-25 12:00:00 rrr = s/p y WW = 2 w1=8 w2=2 0.0 2021-10-25 12:15:00
1 2021-11-07 06:00:00 rrr = s/p y WW = 2 w1=5 w2=2 0.0 2021-11-07 06:09:00
1 2021-11-18 18:00:00 rrr = s/p y WW = 2 w1=5 w2=2 0.0 2021-11-18 17:50:00
1 2021-11-23 06:00:00 rrr = 6.5 y WW = 2 w1=2 w2=2 6.5 2021-11-23 13:09:00
1 2021-11-29 12:00:00 rrr = s/p y WW = 2 w1=5 w2=5 0.0 2021-11-29 13:06:00
1 2021-12-03 00:00:00 rrr = s/p y WW = 50 w1=5 w2=5 0.0 2021-12-02 23:54:00
1 2021-12-03 12:00:00 rrr = s/p y WW = 3 w1=5 w2=5 0.0 2021-12-03 11:57:00
1 2021-12-08 00:00:00 rrr = s/p y WW = 1 w1=5 w2=0 0.0 2021-12-08 00:17:00
1 2021-12-15 12:00:00 rrr = s/p y WW = 3 w1=5 w2=2 0.0 2021-12-15 12:15:00
1 2021-12-18 06:00:00 rrr = s/p y WW = 50 w1=5 w2=5 0.0 2021-12-18 06:14:00
1 2021-12-22 12:00:00 rrr = trazas y WW = 15 w1=2 w2=2 0.0 2021-12-22 12:21:00
1 2021-12-23 12:00:00 rrr = s/p y WW = 1 w1=5 w2=2 0.0 2021-12-23 12:03:00
1 2021-12-24 06:00:00 rrr = s/p y WW = 51 w1=5 w2=5 0.0 2021-12-24 06:04:00
1 2021-12-26 18:00:00 rrr = s/p y WW = 2 w1=5 w2=2 0.0 2021-12-26 18:01:00
1 2021-12-27 12:00:00 rrr = s/p y WW = 2 w1=5 w2=2 0.0 2021-12-27 13:52:00
1 2021-12-28 00:00:00 rrr = s/p y WW = 15 w1=5 w2=5 0.0 2021-12-28 00:39:00
1 2021-12-29 00:00:00 rrr = s/p y WW = 2 w1=5 w2=2 0.0 2021-12-29 00:21:00
1 2022-01-01 18:00:00 rrr = s/p y WW = 15 w1=5 w2=5 0.0 2022-01-01 18:15:00
1 2022-01-01 18:00:00 rrr = s/p y WW = 15 w1=5 w2=5 0.0 2022-01-01 18:15:00
1 2022-01-02 06:00:00 rrr = s/p y WW = 25 w1=5 w2=5 0.0 2022-01-02 05:59:00
1 2022-01-02 12:00:00 rrr = 2.6 y WW = 1 w1=2 w2=2 2.6 2022-01-02 12:05:00
1 2022-01-08 06:00:00 rrr = s/p y WW = 2 w1=5 w2=2 0.0 2022-01-08 05:55:00
1 2022-01-14 06:00:00 rrr = s/p y WW = 1 w1=6 w2=1 0.0 2022-01-14 06:27:00
1 2022-01-17 00:00:00 rrr = s/p y WW = 15 w1=5 w2=5 0.0 2022-01-17 01:35:00
1 2022-01-21 18:00:00 rrr = s/p y WW = 15 w1=5 w2=5 0.0 2022-01-21 18:22:00
1 2022-01-22 18:00:00 rrr = s/p y WW = 3 w1=5 w2=2 0.0 2022-01-22 18:23:00
1 2022-01-23 00:00:00 rrr = s/p y WW = 55 w1=5 w2=2 0.0 2022-01-23 00:31:00
1 2022-01-23 12:00:00 rrr = s/p y WW = 2 w1=5 w2=2 0.0 2022-01-23 12:52:00
1 2022-01-24 06:00:00 rrr = s/p y WW = 3 w1=5 w2=2 0.0 2022-01-24 06:12:00
1 2022-01-29 12:00:00 rrr = s/p y WW = 63 w1=6 w2=2 0.0 2022-01-29 12:04:00
1 2022-01-29 18:00:00 rrr = s/p y WW = 1 w1=6 w2=5 0.0 2022-01-29 18:41:00
1 2022-01-30 00:00:00 rrr = s/p y WW = 3 w1=8 w2=5 0.0 2022-01-29 23:57:00
1 2022-02-03 18:00:00 rrr = s/p y WW = 3 w1=5 w2=5 0.0 2022-02-03 19:22:00
1 2022-02-05 12:00:00 rrr = 0.2 y WW = 15 w1=2 w2=1 0.2 2022-02-05 12:25:00
1 2022-02-05 18:00:00 rrr = s/p y WW = 15 w1=5 w2=5 0.0 2022-02-05 18:28:00
1 2022-02-06 12:00:00 rrr = s/p y WW = 2 w1=5 w2=5 0.0 2022-02-06 11:51:00
1 2022-02-08 00:00:00 rrr = s/p y WW = 1 w1=6 w2=5 0.0 2022-02-08 00:11:00
1 2022-02-08 12:00:00 rrr = s/p y WW = 1 w1=5 w2=2 0.0 2022-02-08 12:00:00
1 2022-02-09 12:00:00 rrr = s/p y WW = 3 w1=6 w2=2 0.0 2022-02-09 12:08:00
1 2022-02-10 18:00:00 rrr = s/p y WW = 1 w1=5 w2=2 0.0 2022-02-10 17:57:00
1 2022-02-13 18:00:00 rrr = s/p y WW = 1 w1=5 w2=5 0.0 2022-02-13 18:03:00
1 2022-02-15 18:00:00 rrr = s/p y WW = 16 w1=6 w2=6 0.0 2022-02-15 18:32:00
1 2022-02-20 18:00:00 rrr = s/p y WW = 3 w1=5 w2=5 0.0 2022-02-20 18:49:00
1 2022-02-28 18:00:00 rrr = s/p y WW = 2 w1=5 w2=2 0.0 2022-02-28 18:00:00
1 2022-03-03 18:00:00 rrr = s/p y WW = 63 w1=2 w2=2 0.0 2022-03-03 17:49:00
1 2022-03-04 00:00:00 rrr = s/p y WW = 2 w1=6 w2=2 0.0 2022-03-04 00:00:00
1 2022-03-09 18:00:00 rrr = s/p y WW = 20 w1=2 w2=2 0.0 2022-03-09 19:29:00
1 2022-03-10 06:00:00 rrr = s/p y WW = 20 w1=2 w2=2 0.0 2022-03-10 07:38:00
1 2022-03-12 00:00:00 rrr = s/p y WW = 2 w1=5 w2=2 0.0 2022-03-12 00:19:00
1 2022-03-20 06:00:00 rrr = s/p y WW = 61 w1=2 w2=2 0.0 2022-03-20 06:24:00
1 2022-03-22 00:00:00 rrr = s/p y WW = 51 w1=2 w2=2 0.0 2022-03-22 01:11:00
1 2022-03-22 06:00:00 rrr = s/p y WW = 51 w1=2 w2=2 0.0 2022-03-22 08:31:00
1 2022-03-24 18:00:00 rrr = s/p y WW = 2 w1=5 w2=2 0.0 2022-03-24 18:13:00
1 2022-03-26 00:00:00 rrr = s/p y WW = 20 w1=2 w2=2 0.0 2022-03-26 04:14:00
1 2022-03-28 12:00:00 rrr = s/p y WW = 2 w1=5 w2=5 0.0 2022-03-28 11:48:00
1 2022-03-30 06:00:00 rrr = s/p y WW = 50 w1=5 w2=5 0.0 2022-03-30 06:18:00
1 2022-03-31 12:00:00 rrr = s/p y WW = 45 w1=5 w2=5 0.0 2022-03-31 13:30:00
1 2022-03-31 18:00:00 rrr = s/p y WW = 2 w1=5 w2=5 0.0 2022-03-31 18:04:00
1 2022-04-01 00:00:00 rrr = s/p y WW = 2 w1=5 w2=2 0.0 2022-04-01 00:08:00
1 2022-04-02 12:00:00 rrr = s/p y WW = 50 w1=5 w2=5 0.0 2022-04-02 12:13:00
1 2022-04-11 00:00:00 rrr = s/p y WW = 20 w1=2 w2=2 0.0 2022-04-11 00:02:00
1 2022-04-11 06:00:00 rrr = s/p y WW = 20 w1=2 w2=2 0.0 2022-04-11 06:27:00
1 2022-04-19 06:00:00 rrr = 3.0 y WW = 1 w1=2 w2=2 3.0 2022-04-19 08:01:00
1 2022-04-23 00:00:00 rrr = 3.0 y WW = 12 w1=2 w2=2 3.0 2022-04-23 00:21:00
1 2022-04-23 06:00:00 rrr = 1.0 y WW = 2 w1=2 w2=2 1.0 2022-04-23 09:38:00
1 2022-05-09 00:00:00 rrr = s/p y WW = 20 w1=2 w2=2 0.0 2022-05-09 00:38:00
1 2022-05-22 18:00:00 rrr = 3.0 y WW = 2 w1=2 w2=2 3.0 2022-05-22 18:41:00
1 2022-06-13 18:00:00 rrr = s/p y WW = 10 w1=5 w2=2 0.0 2022-06-13 18:39:00
1 2022-06-16 12:00:00 rrr = 2.4 y WW = 1 w1=2 w2=2 2.4 2022-06-16 14:03:00
1 2022-06-28 12:00:00 rrr = s/p y WW = 2 w1=5 w2=2 0.0 2022-06-28 12:00:00
1 2022-07-06 12:00:00 rrr = 4.0 y WW = 1 w1=2 w2=2 4.0 2022-07-06 12:33:00
1 2022-07-08 12:00:00 rrr = s/p y WW = 2 w1=5 w2=5 0.0 2022-07-08 12:02:00
1 2022-07-16 12:00:00 rrr = s/p y WW = 25 w1=2 w2=1 0.0 2022-07-16 12:35:00
1 2022-08-22 00:00:00 rrr = s/p y WW = 50 w1=5 w2=2 0.0 2022-08-22 00:07:00
1 2022-09-22 06:00:00 rrr = s/p y WW = 2 w1=8 w2=2 0.0 2022-09-22 07:13:00
1 2022-09-29 12:00:00 rrr = 0.4 y WW = 2 w1=2 w2=2 0.4 2022-09-29 11:58:00
1 2022-10-13 18:00:00 rrr = s/p y WW = 2 w1=5 w2=2 0.0 2022-10-13 18:11:00
1 2022-10-20 06:00:00 rrr = 0.6 y WW = 2 w1=2 w2=2 0.6 2022-10-20 06:19:00
1 2022-10-26 00:00:00 rrr = s/p y WW = 51 w1=5 w2=2 0.0 2022-10-25 23:59:00
1 2022-11-17 06:00:00 rrr = s/p y WW = 50 w1=5 w2=2 0.0 2022-11-17 09:14:00
1 2023-01-16 06:00:00 rrr = s/p y WW = 3 w1=5 w2=2 0.0 2023-01-16 06:15:00
1 2023-01-25 12:00:00 rrr = s/p y WW = 2 w1=6 w2=6 0.0 2023-01-25 11:56:00
1 2023-02-11 18:00:00 rrr = s/p y WW = 60 w1=6 w2=5 0.0 2023-02-11 19:22:00
1 2023-02-21 18:00:00 rrr = s/p y WW = 63 w1=6 w2=2 0.0 2023-02-21 20:49:00
1 2023-02-23 18:00:00 rrr = s/p y WW = 50 w1=8 w2=5 0.0 2023-02-23 17:58:00
1 2023-02-26 06:00:00 rrr = s/p y WW = 80 w1=5 w2=5 0.0 2023-02-26 06:05:00
1 2023-03-01 06:00:00 rrr = s/p y WW = 53 w1=5 w2=2 0.0 2023-03-01 06:26:00
1 2023-03-03 06:00:00 rrr = s/p y WW = 1 w1=8 w2=2 0.0 2023-03-03 06:51:00
1 2023-03-09 12:00:00 rrr = s/p y WW = 52 w1=5 w2=2 0.0 2023-03-09 12:41:00
1 2023-03-10 00:00:00 rrr = 3.0 y WW = 2 w1=2 w2=2 3.0 2023-03-10 00:27:00
1 2023-03-15 18:00:00 rrr = s/p y WW = 2 w1=8 w2=8 0.0 2023-03-15 18:30:00
1 2023-03-20 00:00:00 rrr = 1.0 y WW = 2 w1=2 w2=2 1.0 2023-03-20 00:05:00
1 2023-04-02 00:00:00 rrr = s/p y WW = 1 w1=8 w2=2 0.0 2023-04-02 00:14:00
1 2023-04-04 00:00:00 rrr = s/p y WW = 81 w1=8 w2=8 0.0 2023-04-03 23:59:00
1 2023-04-08 18:00:00 rrr = s/p y WW = 50 w1=5 w2=2 0.0 2023-04-08 18:04:00
1 2023-04-21 18:00:00 rrr = s/p y WW = 1 w1=5 w2=2 0.0 2023-04-21 18:01:00
1 2023-05-11 12:00:00 rrr = 0.8 y WW = 2 w1=2 w2=2 0.8 2023-05-11 13:17:00
1 2023-05-13 18:00:00 rrr = s/p y WW = 2 w1=5 w2=2 0.0 2023-05-13 18:04:00
1 2023-05-19 18:00:00 rrr = s/p y WW = 1 w1=8 w2=0 0.0 2023-05-19 17:56:00
1 2023-05-23 00:00:00 rrr = s/p y WW = 80 w1=8 w2=8 0.0 2023-05-23 00:04:00
1 2023-05-23 12:00:00 rrr = s/p y WW = 1 w1=8 w2=8 0.0 2023-05-23 12:10:00
1 2023-05-27 12:00:00 rrr = s/p y WW = 3 w1=5 w2=0 0.0 2023-05-27 12:04:00
1 2023-06-10 18:00:00 rrr = s/p y WW = 2 w1=5 w2=2 0.0 2023-06-10 18:01:00
1 2023-06-30 18:00:00 rrr = s/p y WW = 2 w1=5 w2=2 0.0 2023-06-30 17:57:00
1 2023-08-01 06:00:00 rrr = 0.2 y WW = 10 w1=2 w2=2 0.2 2023-08-01 06:16:00
1 2023-08-21 12:00:00 rrr = 0.1 y WW = 1 w1=2 w2=2 0.1 2023-08-21 13:20:00
1 2023-08-27 06:00:00 rrr = s/p y WW = 80 w1=8 w2=8 0.0 2023-08-28 00:25:00
1 2023-08-31 18:00:00 rrr = s/p y WW = 80 w1=8 w2=6 0.0 2023-08-31 18:07:00
1 2023-09-08 18:00:00 rrr = s/p y WW = 50 w1=5 w2=2 0.0 2023-09-08 18:06:00
1 2023-09-15 12:00:00 rrr = s/p y WW = 40 w1=5 w2=5 0.0 2023-09-15 12:23:00
1 2023-10-07 18:00:00 rrr = 0.5 y WW = 16 w1=2 w2=2 0.5 2023-10-07 17:51:00
1 2023-10-12 12:00:00 rrr = s/p y WW = 2 w1=5 w2=2 0.0 2023-10-12 11:52:00
1 2023-10-21 00:00:00 rrr = s/p y WW = 1 w1=8 w2=2 0.0 2023-10-21 01:00:00
1 2023-10-29 12:00:00 rrr = s/p y WW = 21 w1=2 w2=2 0.0 2023-10-29 12:06:00
1 2023-11-25 18:00:00 rrr = s/p y WW = 42 w1=5 w2=5 0.0 2023-11-26 04:03:00
1 2024-01-31 12:00:00 rrr = s/p y WW = 2 w1=6 w2=2 0.0 2024-01-31 14:51:00
1 2021-05-10 00:00:00 qfe debe ser menor o igual a qff 1026.1 - 1021.5 2021-05-10 00:06:00
1 2021-07-26 12:00:00 qfe debe ser menor o igual a qff 1027.1 - 1023.6 2021-07-26 11:55:00
1 2022-11-16 15:00:00 qfe debe ser menor o igual a qff 1016.4 - 1011.1 2022-11-17 00:47:00
1 2023-03-24 15:00:00 qfe debe ser menor o igual a qff 1011.8 - 1009.6 2023-03-24 15:07:00
1 2023-05-27 21:00:00 qfe debe ser menor o igual a qff 1027.7 - 1023.0 2023-05-27 21:03:00
1 2023-06-19 06:00:00 qfe debe ser menor o igual a qff 1027.1 - 1022.4 2023-06-19 05:51:00
1 2023-09-09 03:00:00 qfe debe ser menor o igual a qff 1007.5 - 1002.2 2023-09-09 03:07:00
Errores del Nivel 288
Nivel Fecha del Dato Descripción Información Error Fecha Ingreso
2 2020-06-29 00:00:00 Temperatura 7.4 del 28-06-2020 21:00, Mayor que la Máxima 7.0 29-06-2020 00:00 7.4 -- 7.0 2020-06-29 00:34:00
2 2021-03-05 00:00:00 Temperatura 16.0 del 04-03-2021 18:00, Mayor que la Máxima 15.2 05-03-2021 00:00 16.0 -- 15.2 2021-03-05 00:08:00
2 2021-03-08 00:00:00 Temperatura 12.7 del 07-03-2021 21:00, Mayor que la Máxima 12.0 08-03-2021 00:00 12.7 -- 12.0 2021-03-08 00:22:00
2 2021-03-19 00:00:00 Temperatura 11.4 del 18-03-2021 18:00, Mayor que la Máxima 11.1 19-03-2021 00:00 11.4 -- 11.1 2021-03-19 00:46:00
2 2021-04-02 00:00:00 Temperatura 16.3 del 01-04-2021 18:00, Mayor que la Máxima 16.0 02-04-2021 00:00 16.3 -- 16.0 2021-04-02 00:32:00
2 2021-04-07 00:00:00 Temperatura 14.4 del 06-04-2021 15:00, Mayor que la Máxima 14.0 07-04-2021 00:00 14.4 -- 14.0 2021-04-07 08:47:00
2 2021-04-17 00:00:00 Temperatura 12.4 del 16-04-2021 18:00, Mayor que la Máxima 11.4 17-04-2021 00:00 12.4 -- 11.4 2021-04-17 00:05:00
2 2021-05-12 00:00:00 Temperatura 12.6 del 11-05-2021 18:00, Mayor que la Máxima 12.0 12-05-2021 00:00 12.6 -- 12.0 2021-05-12 00:59:00
2 2021-06-06 00:00:00 Temperatura 9.4 del 05-06-2021 18:00, Mayor que la Máxima 9.0 06-06-2021 00:00 9.4 -- 9.0 2021-06-05 23:58:00
2 2021-08-27 00:00:00 Temperatura 8.2 del 26-08-2021 18:00, Mayor que la Máxima 8.0 27-08-2021 00:00 8.2 -- 8.0 2021-08-27 00:10:00
2 2021-09-08 00:00:00 Temperatura 10.8 del 07-09-2021 18:00, Mayor que la Máxima 10.5 08-09-2021 00:00 10.8 -- 10.5 2021-09-08 00:19:00
2 2021-09-09 00:00:00 Temperatura 10.4 del 08-09-2021 15:00, Mayor que la Máxima 10.0 09-09-2021 00:00 10.4 -- 10.0 2021-09-09 00:00:00
2 2021-11-09 00:00:00 Temperatura 15.0 del 08-11-2021 21:00, Mayor que la Máxima 10.0 09-11-2021 00:00 15.0 -- 10.0 2021-11-09 00:13:00
2 2021-11-12 00:00:00 Temperatura 16.4 del 11-11-2021 15:00, Mayor que la Máxima 14.0 12-11-2021 00:00 16.4 -- 14.0 2021-11-12 00:39:00
2 2021-12-17 00:00:00 Temperatura 12.2 del 16-12-2021 18:00, Mayor que la Máxima 11.5 17-12-2021 00:00 12.2 -- 11.5 2021-12-17 00:08:00
2 2022-01-09 00:00:00 Temperatura 21.3 del 08-01-2022 18:00, Mayor que la Máxima 15.0 09-01-2022 00:00 21.3 -- 15.0 2022-01-09 00:01:00
2 2022-01-14 00:00:00 Temperatura 14.2 del 13-01-2022 21:00, Mayor que la Máxima 11.0 14-01-2022 00:00 14.2 -- 11.0 2022-01-14 00:16:00
2 2022-01-16 00:00:00 Temperatura 10.7 del 15-01-2022 21:00, Mayor que la Máxima 9.5 16-01-2022 00:00 10.7 -- 9.5 2022-01-16 00:25:00
2 2022-01-21 00:00:00 Temperatura 15.6 del 20-01-2022 18:00, Mayor que la Máxima 15.5 21-01-2022 00:00 15.6 -- 15.5 2022-01-20 23:55:00
2 2022-02-01 00:00:00 Temperatura 13.6 del 31-01-2022 18:00, Mayor que la Máxima 13.5 01-02-2022 00:00 13.6 -- 13.5 2022-02-01 00:22:00
2 2022-02-05 00:00:00 Temperatura 12.9 del 04-02-2022 21:00, Mayor que la Máxima 12.5 05-02-2022 00:00 12.9 -- 12.5 2022-02-04 23:59:00
2 2022-02-15 00:00:00 Temperatura 13.8 del 14-02-2022 18:00, Mayor que la Máxima 13.5 15-02-2022 00:00 13.8 -- 13.5 2022-02-15 00:52:00
2 2022-02-25 00:00:00 Temperatura 15.2 del 24-02-2022 18:00, Mayor que la Máxima 15.0 25-02-2022 00:00 15.2 -- 15.0 2022-02-25 01:19:00
2 2022-04-06 00:00:00 Temperatura 12.5 del 05-04-2022 15:00, Mayor que la Máxima 12.0 06-04-2022 00:00 12.5 -- 12.0 2022-04-05 23:46:00
2 2022-04-18 00:00:00 Temperatura 14.8 del 17-04-2022 15:00, Mayor que la Máxima 14.0 18-04-2022 00:00 14.8 -- 14.0 2022-04-17 23:55:00
2 2022-05-20 00:00:00 Temperatura 13.0 del 19-05-2022 18:00, Mayor que la Máxima 12.5 20-05-2022 00:00 13.0 -- 12.5 2022-05-20 00:50:00
2 2022-08-14 00:00:00 Temperatura 7.4 del 13-08-2022 15:00, Mayor que la Máxima 7.0 14-08-2022 00:00 7.4 -- 7.0 2022-08-13 23:58:00
2 2022-08-27 00:00:00 Temperatura 7.4 del 26-08-2022 15:00, Mayor que la Máxima 6.2 27-08-2022 00:00 7.4 -- 6.2 2022-08-27 00:31:00
2 2022-10-30 00:00:00 Temperatura 7.4 del 29-10-2022 15:00, Mayor que la Máxima 6.8 30-10-2022 00:00 7.4 -- 6.8 2022-10-30 00:47:00
2 2022-11-25 00:00:00 Temperatura 11.4 del 24-11-2022 18:00, Mayor que la Máxima 11.0 25-11-2022 00:00 11.4 -- 11.0 2022-11-25 01:55:00
2 2023-01-05 00:00:00 Temperatura 13.8 del 04-01-2023 21:00, Mayor que la Máxima 13.6 05-01-2023 00:00 13.8 -- 13.6 2023-01-05 00:55:00
2 2023-01-12 00:00:00 Temperatura 11.4 del 11-01-2023 18:00, Mayor que la Máxima 10.8 12-01-2023 00:00 11.4 -- 10.8 2023-01-12 00:19:00
2 2023-02-25 00:00:00 Temperatura 13.0 del 24-02-2023 15:00, Mayor que la Máxima 12.6 25-02-2023 00:00 13.0 -- 12.6 2023-02-25 00:28:00
2 2023-03-11 00:00:00 Temperatura 15.2 del 10-03-2023 15:00, Mayor que la Máxima 15.0 11-03-2023 00:00 15.2 -- 15.0 2023-03-11 00:11:00
2 2023-03-23 00:00:00 Temperatura 11.6 del 22-03-2023 18:00, Mayor que la Máxima 11.0 23-03-2023 00:00 11.6 -- 11.0 2023-03-22 23:58:00
2 2023-07-20 00:00:00 Temperatura 10.4 del 19-07-2023 18:00, Mayor que la Máxima 10.2 20-07-2023 00:00 10.4 -- 10.2 2023-07-20 00:03:00
2 2023-08-22 00:00:00 Temperatura 7.6 del 21-08-2023 18:00, Mayor que la Máxima 7.5 22-08-2023 00:00 7.6 -- 7.5 2023-08-22 00:16:00
2 2023-08-27 00:00:00 Temperatura 9.4 del 26-08-2023 18:00, Mayor que la Máxima 9.2 27-08-2023 00:00 9.4 -- 9.2 2023-08-26 23:57:00
2 2023-09-13 00:00:00 Temperatura 8.2 del 12-09-2023 18:00, Mayor que la Máxima 7.8 13-09-2023 00:00 8.2 -- 7.8 2023-09-13 00:02:00
2 2023-09-14 00:00:00 Temperatura 9.4 del 13-09-2023 21:00, Mayor que la Máxima 9.0 14-09-2023 00:00 9.4 -- 9.0 2023-09-14 00:36:00
2 2023-10-08 00:00:00 Temperatura 8.6 del 07-10-2023 15:00, Mayor que la Máxima 7.8 08-10-2023 00:00 8.6 -- 7.8 2023-10-08 04:06:00
2 2023-11-08 00:00:00 Temperatura 10.4 del 07-11-2023 18:00, Mayor que la Máxima 8.8 08-11-2023 00:00 10.4 -- 8.8 2023-11-08 00:00:00
2 2023-12-18 00:00:00 Temperatura 12.4 del 17-12-2023 18:00, Mayor que la Máxima 12.0 18-12-2023 00:00 12.4 -- 12.0 2023-12-18 00:27:00
2 2023-12-19 00:00:00 Temperatura 11.6 del 18-12-2023 18:00, Mayor que la Máxima 11.2 19-12-2023 00:00 11.6 -- 11.2 2023-12-19 00:46:00
2 2023-12-31 00:00:00 Temperatura 14.6 del 30-12-2023 18:00, Mayor que la Máxima 14.0 31-12-2023 00:00 14.6 -- 14.0 2023-12-31 02:05:00
2 2024-01-18 00:00:00 Temperatura 15.6 del 17-01-2024 15:00, Mayor que la Máxima 14.8 18-01-2024 00:00 15.6 -- 14.8 2024-01-18 03:11:00
2 2020-12-12 12:00:00 Temperatura 8.0 del 12-12-2020 09:00, Menor que la Mínima 8.2 12-12-2020 12:00 8.0 -- 8.2 2020-12-12 12:28:00
2 2021-01-27 12:00:00 Temperatura 8.8 del 27-01-2021 09:00, Menor que la Mínima 9.1 27-01-2021 12:00 8.8 -- 9.1 2021-01-27 12:35:00
2 2021-01-29 12:00:00 Temperatura 9.6 del 29-01-2021 03:00, Menor que la Mínima 10.0 29-01-2021 12:00 9.6 -- 10.0 2021-01-29 12:14:00
2 2021-02-25 12:00:00 Temperatura 12.0 del 25-02-2021 03:00, Menor que la Mínima 12.1 25-02-2021 12:00 12.0 -- 12.1 2021-02-25 12:12:00
2 2021-03-24 12:00:00 Temperatura 9.4 del 24-03-2021 06:00, Menor que la Mínima 9.5 24-03-2021 12:00 9.4 -- 9.5 2021-03-24 12:09:00
2 2021-08-01 12:00:00 Temperatura 8.2 del 01-08-2021 03:00, Menor que la Mínima 8.4 01-08-2021 12:00 8.2 -- 8.4 2021-08-01 12:08:00
2 2021-11-11 12:00:00 Temperatura 7.2 del 11-11-2021 03:00, Menor que la Mínima 7.5 11-11-2021 12:00 7.2 -- 7.5 2021-11-11 12:24:00
2 2021-11-16 12:00:00 Temperatura 7.0 del 16-11-2021 09:00, Menor que la Mínima 8.2 16-11-2021 12:00 7.0 -- 8.2 2021-11-16 13:00:00
2 2021-11-21 12:00:00 Temperatura 9.2 del 21-11-2021 03:00, Menor que la Mínima 10.0 21-11-2021 12:00 9.2 -- 10.0 2021-11-21 12:10:00
2 2021-11-23 12:00:00 Temperatura 9.0 del 23-11-2021 03:00, Menor que la Mínima 10.0 23-11-2021 12:00 9.0 -- 10.0 2021-11-23 13:08:00
2 2021-11-24 12:00:00 Temperatura 8.4 del 24-11-2021 06:00, Menor que la Mínima 9.0 24-11-2021 12:00 8.4 -- 9.0 2021-11-25 00:46:00
2 2021-11-26 12:00:00 Temperatura 8.0 del 26-11-2021 09:00, Menor que la Mínima 8.5 26-11-2021 12:00 8.0 -- 8.5 2021-11-26 12:57:00
2 2021-11-27 12:00:00 Temperatura 8.4 del 27-11-2021 09:00, Menor que la Mínima 8.5 27-11-2021 12:00 8.4 -- 8.5 2021-11-27 12:26:00
2 2021-12-06 12:00:00 Temperatura 9.6 del 06-12-2021 06:00, Menor que la Mínima 12.0 06-12-2021 12:00 9.6 -- 12.0 2021-12-06 12:12:00
2 2021-12-08 12:00:00 Temperatura 9.4 del 08-12-2021 06:00, Menor que la Mínima 12.2 08-12-2021 12:00 9.4 -- 12.2 2021-12-08 12:32:00
2 2021-12-10 12:00:00 Temperatura 9.3 del 10-12-2021 06:00, Menor que la Mínima 10.0 10-12-2021 12:00 9.3 -- 10.0 2021-12-10 11:45:00
2 2021-12-11 12:00:00 Temperatura 10.8 del 11-12-2021 09:00, Menor que la Mínima 11.0 11-12-2021 12:00 10.8 -- 11.0 2021-12-11 12:04:00
2 2021-12-15 12:00:00 Temperatura 9.4 del 15-12-2021 09:00, Menor que la Mínima 9.5 15-12-2021 12:00 9.4 -- 9.5 2021-12-15 12:15:00
2 2021-12-18 12:00:00 Temperatura 10.4 del 18-12-2021 09:00, Menor que la Mínima 11.0 18-12-2021 12:00 10.4 -- 11.0 2021-12-18 11:53:00
2 2021-12-21 12:00:00 Temperatura 10.4 del 21-12-2021 03:00, Menor que la Mínima 11.5 21-12-2021 12:00 10.4 -- 11.5 2021-12-21 12:09:00
2 2021-12-23 12:00:00 Temperatura 10.4 del 23-12-2021 09:00, Menor que la Mínima 11.0 23-12-2021 12:00 10.4 -- 11.0 2021-12-23 12:03:00
2 2021-12-25 12:00:00 Temperatura 11.6 del 25-12-2021 09:00, Menor que la Mínima 12.0 25-12-2021 12:00 11.6 -- 12.0 2021-12-25 12:04:00
2 2021-12-26 12:00:00 Temperatura 13.0 del 26-12-2021 03:00, Menor que la Mínima 13.5 26-12-2021 12:00 13.0 -- 13.5 2021-12-26 12:16:00
2 2021-12-28 12:00:00 Temperatura 11.4 del 28-12-2021 09:00, Menor que la Mínima 12.4 28-12-2021 12:00 11.4 -- 12.4 2021-12-28 11:58:00
2 2021-12-30 12:00:00 Temperatura 10.4 del 30-12-2021 03:00, Menor que la Mínima 11.0 30-12-2021 12:00 10.4 -- 11.0 2021-12-30 12:18:00
2 2022-01-01 12:00:00 Temperatura 10.4 del 01-01-2022 03:00, Menor que la Mínima 12.0 01-01-2022 12:00 10.4 -- 12.0 2022-01-01 12:01:00
2 2022-01-01 12:00:00 Temperatura 10.4 del 01-01-2022 03:00, Menor que la Mínima 12.0 01-01-2022 12:00 10.4 -- 12.0 2022-01-01 12:01:00
2 2022-01-02 12:00:00 Temperatura 8.2 del 02-01-2022 06:00, Menor que la Mínima 8.3 02-01-2022 12:00 8.2 -- 8.3 2022-01-02 12:05:00
2 2022-01-04 12:00:00 Temperatura 9.4 del 04-01-2022 06:00, Menor que la Mínima 10.0 04-01-2022 12:00 9.4 -- 10.0 2022-01-04 12:21:00
2 2022-01-10 12:00:00 Temperatura 10.0 del 10-01-2022 09:00, Menor que la Mínima 11.5 10-01-2022 12:00 10.0 -- 11.5 2022-01-10 11:52:00
2 2022-01-12 12:00:00 Temperatura 12.0 del 12-01-2022 09:00, Menor que la Mínima 12.2 12-01-2022 12:00 12.0 -- 12.2 2022-01-12 11:57:00
2 2022-01-14 12:00:00 Temperatura 9.3 del 14-01-2022 03:00, Menor que la Mínima 10.0 14-01-2022 12:00 9.3 -- 10.0 2022-01-14 12:01:00
2 2022-01-21 12:00:00 Temperatura 11.2 del 21-01-2022 03:00, Menor que la Mínima 11.5 21-01-2022 12:00 11.2 -- 11.5 2022-01-21 12:36:00
2 2022-01-29 12:00:00 Temperatura 12.3 del 29-01-2022 06:00, Menor que la Mínima 14.0 29-01-2022 12:00 12.3 -- 14.0 2022-01-29 12:04:00
2 2022-01-30 12:00:00 Temperatura 9.2 del 30-01-2022 06:00, Menor que la Mínima 9.5 30-01-2022 12:00 9.2 -- 9.5 2022-01-30 12:11:00
2 2022-02-02 12:00:00 Temperatura 11.2 del 02-02-2022 03:00, Menor que la Mínima 13.0 02-02-2022 12:00 11.2 -- 13.0 2022-02-02 13:07:00
2 2022-02-06 12:00:00 Temperatura 14.0 del 06-02-2022 03:00, Menor que la Mínima 14.1 06-02-2022 12:00 14.0 -- 14.1 2022-02-06 11:51:00
2 2022-02-07 12:00:00 Temperatura 15.1 del 07-02-2022 03:00, Menor que la Mínima 16.0 07-02-2022 12:00 15.1 -- 16.0 2022-02-07 12:23:00
2 2022-02-11 12:00:00 Temperatura 11.0 del 11-02-2022 09:00, Menor que la Mínima 11.3 11-02-2022 12:00 11.0 -- 11.3 2022-02-11 12:27:00
2 2022-02-17 12:00:00 Temperatura 12.4 del 17-02-2022 03:00, Menor que la Mínima 13.0 17-02-2022 12:00 12.4 -- 13.0 2022-02-17 13:03:00
2 2022-02-18 12:00:00 Temperatura 12.0 del 18-02-2022 06:00, Menor que la Mínima 13.0 18-02-2022 12:00 12.0 -- 13.0 2022-02-18 12:26:00
2 2022-02-21 12:00:00 Temperatura 12.0 del 21-02-2022 03:00, Menor que la Mínima 15.0 21-02-2022 12:00 12.0 -- 15.0 2022-02-21 15:04:00
2 2022-02-22 12:00:00 Temperatura 12.9 del 22-02-2022 09:00, Menor que la Mínima 14.0 22-02-2022 12:00 12.9 -- 14.0 2022-02-22 12:03:00
2 2022-04-03 12:00:00 Temperatura 9.2 del 03-04-2022 06:00, Menor que la Mínima 9.5 03-04-2022 12:00 9.2 -- 9.5 2022-04-03 12:28:00
2 2022-05-09 12:00:00 Temperatura 9.2 del 09-05-2022 03:00, Menor que la Mínima 9.5 09-05-2022 12:00 9.2 -- 9.5 2022-05-09 12:34:00
2 2022-05-13 12:00:00 Temperatura 7.6 del 13-05-2022 06:00, Menor que la Mínima 7.8 13-05-2022 12:00 7.6 -- 7.8 2022-05-13 12:50:00
2 2022-09-20 12:00:00 Temperatura 6.6 del 20-09-2022 09:00, Menor que la Mínima 7.0 20-09-2022 12:00 6.6 -- 7.0 2022-09-20 12:00:00
2 2022-10-20 12:00:00 Temperatura 7.2 del 20-10-2022 06:00, Menor que la Mínima 7.6 20-10-2022 12:00 7.2 -- 7.6 2022-10-20 11:54:00
2 2022-11-11 12:00:00 Temperatura 8.5 del 11-11-2022 06:00, Menor que la Mínima 9.0 11-11-2022 12:00 8.5 -- 9.0 2022-11-11 15:16:00
2 2022-11-15 12:00:00 Temperatura 8.6 del 15-11-2022 06:00, Menor que la Mínima 10.0 15-11-2022 12:00 8.6 -- 10.0 2022-11-15 15:13:00
2 2022-11-16 12:00:00 Temperatura 9.2 del 16-11-2022 03:00, Menor que la Mínima 9.5 16-11-2022 12:00 9.2 -- 9.5 2022-11-16 12:29:00
2 2022-11-27 12:00:00 Temperatura 8.0 del 27-11-2022 09:00, Menor que la Mínima 8.5 27-11-2022 12:00 8.0 -- 8.5 2022-11-27 12:37:00
2 2022-11-30 12:00:00 Temperatura 7.2 del 30-11-2022 06:00, Menor que la Mínima 7.3 30-11-2022 12:00 7.2 -- 7.3 2022-11-30 12:11:00
2 2022-12-23 12:00:00 Temperatura 9.6 del 23-12-2022 09:00, Menor que la Mínima 9.8 23-12-2022 12:00 9.6 -- 9.8 2022-12-23 13:22:00
2 2023-01-28 12:00:00 Temperatura 13.0 del 28-01-2023 03:00, Menor que la Mínima 14.0 28-01-2023 12:00 13.0 -- 14.0 2023-01-28 12:01:00
2 2023-02-17 12:00:00 Temperatura 9.6 del 17-02-2023 06:00, Menor que la Mínima 11.0 17-02-2023 12:00 9.6 -- 11.0 2023-02-17 13:01:00
2 2023-02-25 12:00:00 Temperatura 9.0 del 25-02-2023 09:00, Menor que la Mínima 10.0 25-02-2023 12:00 9.0 -- 10.0 2023-02-25 12:27:00
2 2023-04-19 12:00:00 Temperatura 9.0 del 19-04-2023 09:00, Menor que la Mínima 10.0 19-04-2023 12:00 9.0 -- 10.0 2023-04-19 12:27:00
2 2023-07-24 12:00:00 Temperatura 5.2 del 24-07-2023 06:00, Menor que la Mínima 5.8 24-07-2023 12:00 5.2 -- 5.8 2023-07-24 12:38:00
2 2023-09-03 12:00:00 Temperatura 0.8 del 03-09-2023 06:00, Menor que la Mínima 3.0 03-09-2023 12:00 0.8 -- 3.0 2023-09-03 11:55:00
2 2023-09-16 12:00:00 Temperatura 5.9 del 16-09-2023 09:00, Menor que la Mínima 6.0 16-09-2023 12:00 5.9 -- 6.0 2023-09-16 11:38:00
2 2023-10-02 12:00:00 Temperatura 6.4 del 02-10-2023 03:00, Menor que la Mínima 7.0 02-10-2023 12:00 6.4 -- 7.0 2023-10-11 13:28:00
2 2023-11-03 12:00:00 Temperatura 7.4 del 03-11-2023 03:00, Menor que la Mínima 7.6 03-11-2023 12:00 7.4 -- 7.6 2023-11-03 11:48:00
2 2023-11-24 12:00:00 Temperatura 8.4 del 24-11-2023 09:00, Menor que la Mínima 8.7 24-11-2023 12:00 8.4 -- 8.7 2023-11-24 12:36:00
2 2023-11-26 12:00:00 Temperatura 7.9 del 26-11-2023 09:00, Menor que la Mínima 8.8 26-11-2023 12:00 7.9 -- 8.8 2023-11-26 12:03:00
2 2023-12-03 12:00:00 Temperatura 7.1 del 03-12-2023 03:00, Menor que la Mínima 8.0 03-12-2023 12:00 7.1 -- 8.0 2023-12-03 12:06:00
2 2023-12-07 12:00:00 Temperatura 7.8 del 07-12-2023 09:00, Menor que la Mínima 8.0 07-12-2023 12:00 7.8 -- 8.0 2023-12-07 12:11:00
2 2024-01-03 12:00:00 Temperatura 12.6 del 03-01-2024 03:00, Menor que la Mínima 13.0 03-01-2024 12:00 12.6 -- 13.0 2024-01-03 12:28:00
Errores del Nivel 114
Informe generado el 23-02-2024 09:51
Requerimiento: RE6001